sensor_id;sensor_type;location;lat;lon;timestamp;temperature;humidity
15156;DHT22;7678;50.058;8.306;2022-09-09T00:00:21;15.30;99.90
15156;DHT22;7678;50.058;8.306;2022-09-09T00:02:56;15.30;99.90
15156;DHT22;7678;50.058;8.306;2022-09-09T00:05:31;15.00;99.90
15156;DHT22;7678;50.058;8.306;2022-09-09T00:08:02;14.80;99.90
15156;DHT22;7678;50.058;8.306;2022-09-09T00:10:34;15.10;99.90
15156;DHT22;7678;50.058;8.306;2022-09-09T00:13:13;15.10;99.90
15156;DHT22;7678;50.058;8.306;2022-09-09T00:15:54;15.10;99.90
15156;DHT22;7678;50.058;8.306;2022-09-09T00:18:26;15.00;99.90
15156;DHT22;7678;50.058;8.306;2022-09-09T00:20:58;15.20;99.90
15156;DHT22;7678;50.058;8.306;2022-09-09T00:23:32;14.90;99.90
15156;DHT22;7678;50.058;8.306;2022-09-09T00:26:08;14.80;99.90
15156;DHT22;7678;50.058;8.306;2022-09-09T00:28:50;14.70;99.90
15156;DHT22;7678;50.058;8.306;2022-09-09T00:31:26;14.80;99.90
15156;DHT22;7678;50.058;8.306;2022-09-09T00:34:00;14.90;99.90
15156;DHT22;7678;50.058;8.306;2022-09-09T00:36:32;15.00;99.90
15156;DHT22;7678;50.058;8.306;2022-09-09T00:39:02;15.00;99.90
15156;DHT22;7678;50.058;8.306;2022-09-09T00:41:41;14.90;99.90
15156;DHT22;7678;50.058;8.306;2022-09-09T00:44:21;14.80;99.90
15156;DHT22;7678;50.058;8.306;2022-09-09T00:47:04;14.80;99.90
15156;DHT22;7678;50.058;8.306;2022-09-09T00:49:42;14.50;99.90
15156;DHT22;7678;50.058;8.306;2022-09-09T00:52:23;14.50;99.90
15156;DHT22;7678;50.058;8.306;2022-09-09T00:55:03;14.60;99.90
15156;DHT22;7678;50.058;8.306;2022-09-09T00:57:34;14.70;99.90
15156;DHT22;7678;50.058;8.306;2022-09-09T01:00:18;14.50;99.90
15156;DHT22;7678;50.058;8.306;2022-09-09T01:02:54;14.40;99.90
15156;DHT22;7678;50.058;8.306;2022-09-09T01:05:27;14.50;99.90
15156;DHT22;7678;50.058;8.306;2022-09-09T01:07:58;14.60;99.90
15156;DHT22;7678;50.058;8.306;2022-09-09T01:10:39;14.50;99.90
15156;DHT22;7678;50.058;8.306;2022-09-09T01:13:17;14.50;99.90
15156;DHT22;7678;50.058;8.306;2022-09-09T01:15:47;14.60;99.90
15156;DHT22;7678;50.058;8.306;2022-09-09T01:18:20;14.50;99.90
15156;DHT22;7678;50.058;8.306;2022-09-09T01:20:55;14.30;99.90
15156;DHT22;7678;50.058;8.306;2022-09-09T01:23:37;14.30;99.90
15156;DHT22;7678;50.058;8.306;2022-09-09T01:26:25;14.30;99.90
15156;DHT22;7678;50.058;8.306;2022-09-09T01:28:53;14.40;99.90
15156;DHT22;7678;50.058;8.306;2022-09-09T01:31:27;14.40;99.90
15156;DHT22;7678;50.058;8.306;2022-09-09T01:33:56;14.40;99.90
15156;DHT22;7678;50.058;8.306;2022-09-09T01:36:28;14.50;99.90
15156;DHT22;7678;50.058;8.306;2022-09-09T01:38:57;14.40;99.90
15156;DHT22;7678;50.058;8.306;2022-09-09T01:41:27;14.20;99.90
15156;DHT22;7678;50.058;8.306;2022-09-09T01:43:55;14.30;99.90
15156;DHT22;7678;50.058;8.306;2022-09-09T01:46:24;14.40;99.90
15156;DHT22;7678;50.058;8.306;2022-09-09T01:48:53;14.30;99.90
15156;DHT22;7678;50.058;8.306;2022-09-09T01:51:21;14.20;99.90
15156;DHT22;7678;50.058;8.306;2022-09-09T01:53:50;14.30;99.90
15156;DHT22;7678;50.058;8.306;2022-09-09T01:56:30;14.20;99.90
15156;DHT22;7678;50.058;8.306;2022-09-09T01:59:15;14.30;99.90
15156;DHT22;7678;50.058;8.306;2022-09-09T02:01:57;14.40;99.90
15156;DHT22;7678;50.058;8.306;2022-09-09T02:04:37;14.20;99.90
15156;DHT22;7678;50.058;8.306;2022-09-09T02:07:21;14.20;99.90
15156;DHT22;7678;50.058;8.306;2022-09-09T02:09:59;14.00;99.90
15156;DHT22;7678;50.058;8.306;2022-09-09T02:12:30;14.10;99.90
15156;DHT22;7678;50.058;8.306;2022-09-09T02:15:03;14.00;99.90
15156;DHT22;7678;50.058;8.306;2022-09-09T02:17:36;14.10;99.90
15156;DHT22;7678;50.058;8.306;2022-09-09T02:20:08;14.10;99.90
15156;DHT22;7678;50.058;8.306;2022-09-09T02:22:39;14.10;99.90
15156;DHT22;7678;50.058;8.306;2022-09-09T02:25:10;14.20;99.90
15156;DHT22;7678;50.058;8.306;2022-09-09T02:27:43;14.20;99.90
15156;DHT22;7678;50.058;8.306;2022-09-09T02:30:13;14.10;99.90
15156;DHT22;7678;50.058;8.306;2022-09-09T02:32:42;14.40;99.90
15156;DHT22;7678;50.058;8.306;2022-09-09T02:35:12;14.40;99.90
15156;DHT22;7678;50.058;8.306;2022-09-09T02:37:42;14.40;99.90
15156;DHT22;7678;50.058;8.306;2022-09-09T02:40:13;14.60;99.90
15156;DHT22;7678;50.058;8.306;2022-09-09T02:42:46;14.70;99.90
15156;DHT22;7678;50.058;8.306;2022-09-09T02:45:17;14.50;99.90
15156;DHT22;7678;50.058;8.306;2022-09-09T02:47:50;14.50;99.90
15156;DHT22;7678;50.058;8.306;2022-09-09T02:50:22;14.60;99.90
15156;DHT22;7678;50.058;8.306;2022-09-09T02:53:02;14.40;99.90
15156;DHT22;7678;50.058;8.306;2022-09-09T02:55:38;14.40;99.90
15156;DHT22;7678;50.058;8.306;2022-09-09T02:58:09;14.40;99.90
15156;DHT22;7678;50.058;8.306;2022-09-09T03:00:39;14.40;99.90
15156;DHT22;7678;50.058;8.306;2022-09-09T03:03:07;14.50;99.90
15156;DHT22;7678;50.058;8.306;2022-09-09T03:05:36;14.50;99.90
15156;DHT22;7678;50.058;8.306;2022-09-09T03:08:05;14.60;99.90
15156;DHT22;7678;50.058;8.306;2022-09-09T03:10:33;14.70;99.90
15156;DHT22;7678;50.058;8.306;2022-09-09T03:13:02;14.70;99.90
15156;DHT22;7678;50.058;8.306;2022-09-09T03:15:32;14.70;99.90
15156;DHT22;7678;50.058;8.306;2022-09-09T03:18:01;14.70;99.90
15156;DHT22;7678;50.058;8.306;2022-09-09T03:20:29;14.80;99.90
15156;DHT22;7678;50.058;8.306;2022-09-09T03:22:58;14.80;99.90
15156;DHT22;7678;50.058;8.306;2022-09-09T03:25:26;14.70;99.90
15156;DHT22;7678;50.058;8.306;2022-09-09T03:27:55;14.70;99.90
15156;DHT22;7678;50.058;8.306;2022-09-09T03:30:24;14.70;99.90
15156;DHT22;7678;50.058;8.306;2022-09-09T03:32:54;14.80;99.90
15156;DHT22;7678;50.058;8.306;2022-09-09T03:35:23;14.80;99.90
15156;DHT22;7678;50.058;8.306;2022-09-09T03:37:52;14.70;99.90
15156;DHT22;7678;50.058;8.306;2022-09-09T03:40:22;14.70;99.90
15156;DHT22;7678;50.058;8.306;2022-09-09T03:42:49;14.70;99.90
15156;DHT22;7678;50.058;8.306;2022-09-09T03:45:17;14.70;99.90
15156;DHT22;7678;50.058;8.306;2022-09-09T03:47:45;14.70;99.90
15156;DHT22;7678;50.058;8.306;2022-09-09T03:50:15;14.80;99.90
15156;DHT22;7678;50.058;8.306;2022-09-09T03:52:43;14.70;99.90
15156;DHT22;7678;50.058;8.306;2022-09-09T03:55:10;14.70;99.90
15156;DHT22;7678;50.058;8.306;2022-09-09T03:57:38;14.70;99.90
15156;DHT22;7678;50.058;8.306;2022-09-09T04:00:08;14.60;99.90
15156;DHT22;7678;50.058;8.306;2022-09-09T04:02:36;14.60;99.90
15156;DHT22;7678;50.058;8.306;2022-09-09T04:05:04;14.60;99.90
15156;DHT22;7678;50.058;8.306;2022-09-09T04:07:34;14.60;99.90
15156;DHT22;7678;50.058;8.306;2022-09-09T04:10:03;14.60;99.90
15156;DHT22;7678;50.058;8.306;2022-09-09T04:12:31;14.70;99.90
15156;DHT22;7678;50.058;8.306;2022-09-09T04:14:59;14.60;99.90
15156;DHT22;7678;50.058;8.306;2022-09-09T04:17:28;14.60;99.90
15156;DHT22;7678;50.058;8.306;2022-09-09T04:19:56;14.60;99.90
15156;DHT22;7678;50.058;8.306;2022-09-09T04:22:24;14.60;99.90
15156;DHT22;7678;50.058;8.306;2022-09-09T04:24:53;14.70;99.90
15156;DHT22;7678;50.058;8.306;2022-09-09T04:27:21;14.70;99.90
15156;DHT22;7678;50.058;8.306;2022-09-09T04:29:49;14.60;99.90
15156;DHT22;7678;50.058;8.306;2022-09-09T04:32:17;14.70;99.90
15156;DHT22;7678;50.058;8.306;2022-09-09T04:34:45;14.60;99.90
15156;DHT22;7678;50.058;8.306;2022-09-09T04:37:14;14.70;99.90
15156;DHT22;7678;50.058;8.306;2022-09-09T04:39:43;14.70;99.90
15156;DHT22;7678;50.058;8.306;2022-09-09T04:42:13;14.60;99.90
15156;DHT22;7678;50.058;8.306;2022-09-09T04:44:41;14.50;99.90
15156;DHT22;7678;50.058;8.306;2022-09-09T04:47:08;14.70;99.90
15156;DHT22;7678;50.058;8.306;2022-09-09T04:49:36;14.50;99.90
15156;DHT22;7678;50.058;8.306;2022-09-09T04:52:05;14.50;99.90
15156;DHT22;7678;50.058;8.306;2022-09-09T04:54:32;14.60;99.90
15156;DHT22;7678;50.058;8.306;2022-09-09T04:57:00;14.60;99.90
15156;DHT22;7678;50.058;8.306;2022-09-09T04:59:30;14.70;99.90
15156;DHT22;7678;50.058;8.306;2022-09-09T05:01:58;14.70;99.90
15156;DHT22;7678;50.058;8.306;2022-09-09T05:04:27;14.70;99.90
15156;DHT22;7678;50.058;8.306;2022-09-09T05:06:56;14.60;99.90
15156;DHT22;7678;50.058;8.306;2022-09-09T05:09:24;14.70;99.90
15156;DHT22;7678;50.058;8.306;2022-09-09T05:11:52;14.60;99.90
15156;DHT22;7678;50.058;8.306;2022-09-09T05:14:19;14.60;99.90
15156;DHT22;7678;50.058;8.306;2022-09-09T05:16:49;14.50;99.90
15156;DHT22;7678;50.058;8.306;2022-09-09T05:19:17;14.70;99.90
15156;DHT22;7678;50.058;8.306;2022-09-09T05:21:46;14.60;99.90
15156;DHT22;7678;50.058;8.306;2022-09-09T05:24:14;14.50;99.90
15156;DHT22;7678;50.058;8.306;2022-09-09T05:26:42;14.60;99.90
15156;DHT22;7678;50.058;8.306;2022-09-09T05:29:10;14.60;99.90
15156;DHT22;7678;50.058;8.306;2022-09-09T05:31:38;14.70;99.90
15156;DHT22;7678;50.058;8.306;2022-09-09T05:34:09;14.80;99.90
15156;DHT22;7678;50.058;8.306;2022-09-09T05:36:37;14.90;99.90
15156;DHT22;7678;50.058;8.306;2022-09-09T05:39:05;14.80;99.90
15156;DHT22;7678;50.058;8.306;2022-09-09T05:41:33;15.00;99.90
15156;DHT22;7678;50.058;8.306;2022-09-09T05:44:02;15.10;99.90
15156;DHT22;7678;50.058;8.306;2022-09-09T05:46:30;15.20;99.90
15156;DHT22;7678;50.058;8.306;2022-09-09T05:48:58;15.20;99.90
15156;DHT22;7678;50.058;8.306;2022-09-09T05:51:28;15.20;99.90
15156;DHT22;7678;50.058;8.306;2022-09-09T05:53:57;15.20;99.90
15156;DHT22;7678;50.058;8.306;2022-09-09T05:56:27;15.20;99.90
15156;DHT22;7678;50.058;8.306;2022-09-09T05:58:56;15.30;99.90
15156;DHT22;7678;50.058;8.306;2022-09-09T06:01:25;15.40;99.90
15156;DHT22;7678;50.058;8.306;2022-09-09T06:03:54;15.50;99.90
15156;DHT22;7678;50.058;8.306;2022-09-09T06:06:30;15.60;99.90
15156;DHT22;7678;50.058;8.306;2022-09-09T06:09:04;15.60;99.90
15156;DHT22;7678;50.058;8.306;2022-09-09T06:11:37;15.60;99.90
15156;DHT22;7678;50.058;8.306;2022-09-09T06:14:06;15.70;99.90
15156;DHT22;7678;50.058;8.306;2022-09-09T06:16:35;15.70;99.90
15156;DHT22;7678;50.058;8.306;2022-09-09T06:19:08;15.80;99.90
15156;DHT22;7678;50.058;8.306;2022-09-09T06:21:42;16.00;99.90
15156;DHT22;7678;50.058;8.306;2022-09-09T06:24:11;15.90;99.90
15156;DHT22;7678;50.058;8.306;2022-09-09T06:26:46;16.00;99.90
15156;DHT22;7678;50.058;8.306;2022-09-09T06:29:17;16.20;99.90
15156;DHT22;7678;50.058;8.306;2022-09-09T06:31:45;16.20;99.90
15156;DHT22;7678;50.058;8.306;2022-09-09T06:34:15;16.20;99.90
15156;DHT22;7678;50.058;8.306;2022-09-09T06:36:44;16.20;99.90
15156;DHT22;7678;50.058;8.306;2022-09-09T06:39:12;16.10;99.90
15156;DHT22;7678;50.058;8.306;2022-09-09T06:41:42;16.20;99.90
15156;DHT22;7678;50.058;8.306;2022-09-09T06:44:10;16.20;99.90
15156;DHT22;7678;50.058;8.306;2022-09-09T06:46:39;16.00;99.90
15156;DHT22;7678;50.058;8.306;2022-09-09T06:49:07;16.00;99.90
15156;DHT22;7678;50.058;8.306;2022-09-09T06:51:37;15.90;99.90
15156;DHT22;7678;50.058;8.306;2022-09-09T06:54:11;15.90;99.90
15156;DHT22;7678;50.058;8.306;2022-09-09T06:56:40;16.00;99.90
15156;DHT22;7678;50.058;8.306;2022-09-09T06:59:09;16.00;99.90
15156;DHT22;7678;50.058;8.306;2022-09-09T07:01:40;16.10;99.90
15156;DHT22;7678;50.058;8.306;2022-09-09T07:04:08;16.30;99.90
15156;DHT22;7678;50.058;8.306;2022-09-09T07:06:39;16.40;99.90
15156;DHT22;7678;50.058;8.306;2022-09-09T07:09:11;16.50;99.90
15156;DHT22;7678;50.058;8.306;2022-09-09T07:11:41;16.60;99.90
15156;DHT22;7678;50.058;8.306;2022-09-09T07:14:09;16.50;99.90
15156;DHT22;7678;50.058;8.306;2022-09-09T07:16:39;16.40;99.90
15156;DHT22;7678;50.058;8.306;2022-09-09T07:19:07;16.50;99.90
15156;DHT22;7678;50.058;8.306;2022-09-09T07:21:35;17.00;99.90
15156;DHT22;7678;50.058;8.306;2022-09-09T07:24:03;17.50;99.90
15156;DHT22;7678;50.058;8.306;2022-09-09T07:26:36;17.70;99.90
15156;DHT22;7678;50.058;8.306;2022-09-09T07:29:04;17.60;99.90
15156;DHT22;7678;50.058;8.306;2022-09-09T07:31:34;17.70;99.90
15156;DHT22;7678;50.058;8.306;2022-09-09T07:34:04;17.60;99.90
15156;DHT22;7678;50.058;8.306;2022-09-09T07:36:34;17.50;99.90
15156;DHT22;7678;50.058;8.306;2022-09-09T07:39:04;17.40;99.90
15156;DHT22;7678;50.058;8.306;2022-09-09T07:41:35;17.30;99.90
15156;DHT22;7678;50.058;8.306;2022-09-09T07:44:08;17.30;99.90
15156;DHT22;7678;50.058;8.306;2022-09-09T07:46:38;17.30;99.90
15156;DHT22;7678;50.058;8.306;2022-09-09T07:49:07;17.40;99.90
15156;DHT22;7678;50.058;8.306;2022-09-09T07:51:37;17.50;99.90
15156;DHT22;7678;50.058;8.306;2022-09-09T07:54:08;17.50;99.90
15156;DHT22;7678;50.058;8.306;2022-09-09T07:56:38;17.70;99.90
15156;DHT22;7678;50.058;8.306;2022-09-09T07:59:08;17.90;99.90
15156;DHT22;7678;50.058;8.306;2022-09-09T08:01:39;17.90;99.90
15156;DHT22;7678;50.058;8.306;2022-09-09T08:04:10;18.20;99.90
15156;DHT22;7678;50.058;8.306;2022-09-09T08:06:47;18.20;99.90
15156;DHT22;7678;50.058;8.306;2022-09-09T08:09:15;18.50;99.90
15156;DHT22;7678;50.058;8.306;2022-09-09T08:11:45;18.80;99.90
15156;DHT22;7678;50.058;8.306;2022-09-09T08:14:14;18.70;99.90
15156;DHT22;7678;50.058;8.306;2022-09-09T08:16:45;18.80;99.90
15156;DHT22;7678;50.058;8.306;2022-09-09T08:19:13;18.60;99.90
15156;DHT22;7678;50.058;8.306;2022-09-09T08:21:43;18.60;99.90
15156;DHT22;7678;50.058;8.306;2022-09-09T08:24:12;18.50;99.90
15156;DHT22;7678;50.058;8.306;2022-09-09T08:26:43;18.30;99.90
15156;DHT22;7678;50.058;8.306;2022-09-09T08:29:13;18.20;99.90
15156;DHT22;7678;50.058;8.306;2022-09-09T08:31:44;18.10;99.90
15156;DHT22;7678;50.058;8.306;2022-09-09T08:34:14;18.10;99.90
15156;DHT22;7678;50.058;8.306;2022-09-09T08:36:44;18.00;99.90
15156;DHT22;7678;50.058;8.306;2022-09-09T08:39:15;18.00;99.90
15156;DHT22;7678;50.058;8.306;2022-09-09T08:41:55;18.00;99.90
15156;DHT22;7678;50.058;8.306;2022-09-09T08:44:41;18.10;99.90
15156;DHT22;7678;50.058;8.306;2022-09-09T08:47:23;18.20;99.90
15156;DHT22;7678;50.058;8.306;2022-09-09T08:50:06;18.30;99.90
15156;DHT22;7678;50.058;8.306;2022-09-09T08:52:48;18.20;99.90
15156;DHT22;7678;50.058;8.306;2022-09-09T08:55:27;18.20;99.90
15156;DHT22;7678;50.058;8.306;2022-09-09T08:57:58;18.10;99.90
15156;DHT22;7678;50.058;8.306;2022-09-09T09:00:35;18.10;99.90
15156;DHT22;7678;50.058;8.306;2022-09-09T09:03:23;18.10;99.90
15156;DHT22;7678;50.058;8.306;2022-09-09T09:06:01;18.10;99.90
15156;DHT22;7678;50.058;8.306;2022-09-09T09:08:38;18.20;99.90
15156;DHT22;7678;50.058;8.306;2022-09-09T09:11:07;18.30;99.90
15156;DHT22;7678;50.058;8.306;2022-09-09T09:13:40;18.40;99.90
15156;DHT22;7678;50.058;8.306;2022-09-09T09:16:19;18.50;99.90
15156;DHT22;7678;50.058;8.306;2022-09-09T09:18:52;18.70;99.90
15156;DHT22;7678;50.058;8.306;2022-09-09T09:21:25;18.70;99.90
15156;DHT22;7678;50.058;8.306;2022-09-09T09:23:58;18.40;99.90
15156;DHT22;7678;50.058;8.306;2022-09-09T09:26:31;18.60;99.90
15156;DHT22;7678;50.058;8.306;2022-09-09T09:29:03;18.80;99.90
15156;DHT22;7678;50.058;8.306;2022-09-09T09:31:37;19.00;99.90
15156;DHT22;7678;50.058;8.306;2022-09-09T09:34:07;18.90;99.90
15156;DHT22;7678;50.058;8.306;2022-09-09T09:36:41;18.90;99.90
15156;DHT22;7678;50.058;8.306;2022-09-09T09:39:21;18.60;99.90
15156;DHT22;7678;50.058;8.306;2022-09-09T09:42:10;18.60;99.90
15156;DHT22;7678;50.058;8.306;2022-09-09T09:44:41;18.40;99.90
15156;DHT22;7678;50.058;8.306;2022-09-09T09:47:12;18.40;99.90
15156;DHT22;7678;50.058;8.306;2022-09-09T09:49:51;18.50;99.90
15156;DHT22;7678;50.058;8.306;2022-09-09T09:52:22;18.60;99.90
15156;DHT22;7678;50.058;8.306;2022-09-09T09:54:51;18.70;99.90
15156;DHT22;7678;50.058;8.306;2022-09-09T09:57:26;18.80;99.90
15156;DHT22;7678;50.058;8.306;2022-09-09T10:00:11;19.00;99.90
15156;DHT22;7678;50.058;8.306;2022-09-09T10:02:43;19.00;99.90
15156;DHT22;7678;50.058;8.306;2022-09-09T10:05:14;18.90;99.90
15156;DHT22;7678;50.058;8.306;2022-09-09T10:07:43;19.00;99.90
15156;DHT22;7678;50.058;8.306;2022-09-09T10:10:16;19.10;99.90
15156;DHT22;7678;50.058;8.306;2022-09-09T10:12:55;19.20;99.90
15156;DHT22;7678;50.058;8.306;2022-09-09T10:15:35;19.60;99.90
15156;DHT22;7678;50.058;8.306;2022-09-09T10:18:34;19.90;99.90
15156;DHT22;7678;50.058;8.306;2022-09-09T10:21:09;19.80;99.90
15156;DHT22;7678;50.058;8.306;2022-09-09T10:24:01;20.10;99.90
15156;DHT22;7678;50.058;8.306;2022-09-09T10:26:40;20.10;99.90
15156;DHT22;7678;50.058;8.306;2022-09-09T10:29:30;20.20;99.90
15156;DHT22;7678;50.058;8.306;2022-09-09T10:32:20;20.40;99.90
15156;DHT22;7678;50.058;8.306;2022-09-09T10:35:01;20.20;99.90
15156;DHT22;7678;50.058;8.306;2022-09-09T10:40:27;20.50;99.90
15156;DHT22;7678;50.058;8.306;2022-09-09T10:43:07;20.70;96.20
15156;DHT22;7678;50.058;8.306;2022-09-09T10:45:48;20.90;99.40
15156;DHT22;7678;50.058;8.306;2022-09-09T10:48:30;21.00;99.20
15156;DHT22;7678;50.058;8.306;2022-09-09T10:51:14;20.90;98.40
15156;DHT22;7678;50.058;8.306;2022-09-09T10:53:52;20.80;97.90
15156;DHT22;7678;50.058;8.306;2022-09-09T10:56:22;20.40;94.90
15156;DHT22;7678;50.058;8.306;2022-09-09T10:58:54;20.30;93.30
15156;DHT22;7678;50.058;8.306;2022-09-09T11:01:27;20.50;93.30
15156;DHT22;7678;50.058;8.306;2022-09-09T11:04:00;20.30;91.80
15156;DHT22;7678;50.058;8.306;2022-09-09T11:06:34;20.30;92.50
15156;DHT22;7678;50.058;8.306;2022-09-09T11:09:05;20.70;93.50
15156;DHT22;7678;50.058;8.306;2022-09-09T11:11:38;20.70;92.70
15156;DHT22;7678;50.058;8.306;2022-09-09T11:14:11;20.80;92.90
15156;DHT22;7678;50.058;8.306;2022-09-09T11:16:42;20.70;93.50
15156;DHT22;7678;50.058;8.306;2022-09-09T11:19:19;20.80;94.60
15156;DHT22;7678;50.058;8.306;2022-09-09T11:21:52;20.90;94.40
15156;DHT22;7678;50.058;8.306;2022-09-09T11:24:25;20.90;95.70
15156;DHT22;7678;50.058;8.306;2022-09-09T11:26:58;21.10;96.00
15156;DHT22;7678;50.058;8.306;2022-09-09T11:32:43;21.90;93.80
15156;DHT22;7678;50.058;8.306;2022-09-09T11:35:30;21.80;92.90
15156;DHT22;7678;50.058;8.306;2022-09-09T11:38:18;21.40;93.80
15156;DHT22;7678;50.058;8.306;2022-09-09T11:40:53;21.50;93.30
15156;DHT22;7678;50.058;8.306;2022-09-09T11:43:25;21.30;92.70
15156;DHT22;7678;50.058;8.306;2022-09-09T11:45:56;21.30;94.40
15156;DHT22;7678;50.058;8.306;2022-09-09T11:48:32;21.20;94.70
15156;DHT22;7678;50.058;8.306;2022-09-09T11:51:04;20.80;93.90
15156;DHT22;7678;50.058;8.306;2022-09-09T11:53:50;20.60;95.40
15156;DHT22;7678;50.058;8.306;2022-09-09T11:56:26;20.50;95.40
15156;DHT22;7678;50.058;8.306;2022-09-09T11:58:59;20.50;95.80
15156;DHT22;7678;50.058;8.306;2022-09-09T12:01:36;20.50;95.20
15156;DHT22;7678;50.058;8.306;2022-09-09T12:04:35;20.40;95.90
15156;DHT22;7678;50.058;8.306;2022-09-09T12:07:21;20.30;94.90
15156;DHT22;7678;50.058;8.306;2022-09-09T12:09:56;20.20;96.30
15156;DHT22;7678;50.058;8.306;2022-09-09T12:12:27;20.20;96.90
15156;DHT22;7678;50.058;8.306;2022-09-09T12:14:58;20.20;97.00
15156;DHT22;7678;50.058;8.306;2022-09-09T12:17:28;20.20;95.60
15156;DHT22;7678;50.058;8.306;2022-09-09T12:20:08;20.10;96.80
15156;DHT22;7678;50.058;8.306;2022-09-09T12:23:08;20.20;96.60
15156;DHT22;7678;50.058;8.306;2022-09-09T12:25:52;20.20;97.30
15156;DHT22;7678;50.058;8.306;2022-09-09T12:28:24;20.30;97.00
15156;DHT22;7678;50.058;8.306;2022-09-09T12:31:00;20.20;97.30
15156;DHT22;7678;50.058;8.306;2022-09-09T12:33:34;20.30;97.30
15156;DHT22;7678;50.058;8.306;2022-09-09T12:36:04;20.20;98.30
15156;DHT22;7678;50.058;8.306;2022-09-09T12:38:36;20.10;98.30
15156;DHT22;7678;50.058;8.306;2022-09-09T12:41:19;20.00;98.20
15156;DHT22;7678;50.058;8.306;2022-09-09T12:43:48;19.90;99.30
15156;DHT22;7678;50.058;8.306;2022-09-09T12:46:27;20.30;99.90
15156;DHT22;7678;50.058;8.306;2022-09-09T12:48:58;20.40;99.90
15156;DHT22;7678;50.058;8.306;2022-09-09T12:51:29;20.60;99.10
15156;DHT22;7678;50.058;8.306;2022-09-09T12:53:59;21.10;97.90
15156;DHT22;7678;50.058;8.306;2022-09-09T12:56:31;21.10;96.70
15156;DHT22;7678;50.058;8.306;2022-09-09T12:59:00;20.80;96.90
15156;DHT22;7678;50.058;8.306;2022-09-09T13:01:30;21.10;96.80
15156;DHT22;7678;50.058;8.306;2022-09-09T13:03:59;20.70;97.30
15156;DHT22;7678;50.058;8.306;2022-09-09T13:06:30;21.10;97.30
15156;DHT22;7678;50.058;8.306;2022-09-09T13:09:00;21.20;97.90
15156;DHT22;7678;50.058;8.306;2022-09-09T13:11:33;21.30;95.30
15156;DHT22;7678;50.058;8.306;2022-09-09T13:14:03;21.30;95.80
15156;DHT22;7678;50.058;8.306;2022-09-09T13:16:32;21.90;95.80
15156;DHT22;7678;50.058;8.306;2022-09-09T13:19:09;22.10;94.40
15156;DHT22;7678;50.058;8.306;2022-09-09T13:21:39;21.80;94.10
15156;DHT22;7678;50.058;8.306;2022-09-09T13:24:26;21.80;93.00
15156;DHT22;7678;50.058;8.306;2022-09-09T13:26:59;21.60;92.00
15156;DHT22;7678;50.058;8.306;2022-09-09T13:29:29;21.80;93.30
15156;DHT22;7678;50.058;8.306;2022-09-09T13:32:04;21.90;94.20
15156;DHT22;7678;50.058;8.306;2022-09-09T13:34:34;21.80;92.90
15156;DHT22;7678;50.058;8.306;2022-09-09T13:37:04;21.80;93.00
15156;DHT22;7678;50.058;8.306;2022-09-09T13:39:35;21.80;91.10
15156;DHT22;7678;50.058;8.306;2022-09-09T13:42:19;21.40;91.80
15156;DHT22;7678;50.058;8.306;2022-09-09T13:44:49;21.00;92.10
15156;DHT22;7678;50.058;8.306;2022-09-09T13:47:19;21.00;93.30
15156;DHT22;7678;50.058;8.306;2022-09-09T13:49:47;20.70;93.70
15156;DHT22;7678;50.058;8.306;2022-09-09T13:52:17;20.50;93.80
15156;DHT22;7678;50.058;8.306;2022-09-09T13:54:47;20.30;93.90
15156;DHT22;7678;50.058;8.306;2022-09-09T13:57:19;20.20;93.90
15156;DHT22;7678;50.058;8.306;2022-09-09T13:59:48;20.20;94.50
15156;DHT22;7678;50.058;8.306;2022-09-09T14:02:32;20.10;95.80
15156;DHT22;7678;50.058;8.306;2022-09-09T14:05:00;20.20;96.30
15156;DHT22;7678;50.058;8.306;2022-09-09T14:07:28;20.10;96.90
15156;DHT22;7678;50.058;8.306;2022-09-09T14:09:56;19.80;98.30
15156;DHT22;7678;50.058;8.306;2022-09-09T14:12:26;19.90;99.00
15156;DHT22;7678;50.058;8.306;2022-09-09T14:14:53;19.80;99.40
15156;DHT22;7678;50.058;8.306;2022-09-09T14:17:21;19.60;99.90
15156;DHT22;7678;50.058;8.306;2022-09-09T14:19:51;19.50;99.90
15156;DHT22;7678;50.058;8.306;2022-09-09T14:22:19;19.10;99.90
15156;DHT22;7678;50.058;8.306;2022-09-09T14:24:47;18.80;99.90
15156;DHT22;7678;50.058;8.306;2022-09-09T14:27:17;18.50;99.90
15156;DHT22;7678;50.058;8.306;2022-09-09T14:29:46;18.40;99.90
15156;DHT22;7678;50.058;8.306;2022-09-09T14:32:14;18.40;99.90
15156;DHT22;7678;50.058;8.306;2022-09-09T14:34:42;18.40;99.90
15156;DHT22;7678;50.058;8.306;2022-09-09T14:37:11;18.80;99.90
15156;DHT22;7678;50.058;8.306;2022-09-09T14:39:39;18.80;99.90
15156;DHT22;7678;50.058;8.306;2022-09-09T14:42:07;18.80;99.90
15156;DHT22;7678;50.058;8.306;2022-09-09T14:44:37;18.60;99.90
15156;DHT22;7678;50.058;8.306;2022-09-09T14:47:07;18.50;99.90
15156;DHT22;7678;50.058;8.306;2022-09-09T14:49:36;18.70;99.90
15156;DHT22;7678;50.058;8.306;2022-09-09T14:52:07;18.70;99.90
15156;DHT22;7678;50.058;8.306;2022-09-09T14:54:35;18.80;99.90
15156;DHT22;7678;50.058;8.306;2022-09-09T14:57:03;18.90;99.90
15156;DHT22;7678;50.058;8.306;2022-09-09T14:59:31;19.10;99.90
15156;DHT22;7678;50.058;8.306;2022-09-09T15:02:00;19.30;99.90
15156;DHT22;7678;50.058;8.306;2022-09-09T15:04:32;19.50;99.90
15156;DHT22;7678;50.058;8.306;2022-09-09T15:07:00;19.70;99.90
15156;DHT22;7678;50.058;8.306;2022-09-09T15:09:28;19.70;99.90
15156;DHT22;7678;50.058;8.306;2022-09-09T15:11:56;19.80;99.90
15156;DHT22;7678;50.058;8.306;2022-09-09T15:14:24;19.70;99.90
15156;DHT22;7678;50.058;8.306;2022-09-09T15:16:52;19.70;99.90
15156;DHT22;7678;50.058;8.306;2022-09-09T15:19:21;19.90;99.90
15156;DHT22;7678;50.058;8.306;2022-09-09T15:21:50;20.00;99.90
15156;DHT22;7678;50.058;8.306;2022-09-09T15:24:18;20.10;99.90
15156;DHT22;7678;50.058;8.306;2022-09-09T15:26:46;20.10;99.90
15156;DHT22;7678;50.058;8.306;2022-09-09T15:29:14;20.10;99.90
15156;DHT22;7678;50.058;8.306;2022-09-09T15:31:42;20.00;99.90
15156;DHT22;7678;50.058;8.306;2022-09-09T15:34:10;19.90;99.90
15156;DHT22;7678;50.058;8.306;2022-09-09T15:36:42;19.90;99.90
15156;DHT22;7678;50.058;8.306;2022-09-09T15:39:13;20.00;99.90
15156;DHT22;7678;50.058;8.306;2022-09-09T15:41:43;19.90;99.90
15156;DHT22;7678;50.058;8.306;2022-09-09T15:44:11;19.70;99.90
15156;DHT22;7678;50.058;8.306;2022-09-09T15:46:41;19.60;99.90
15156;DHT22;7678;50.058;8.306;2022-09-09T15:49:11;19.70;99.90
15156;DHT22;7678;50.058;8.306;2022-09-09T15:51:40;19.70;99.90
15156;DHT22;7678;50.058;8.306;2022-09-09T15:54:13;19.60;99.90
15156;DHT22;7678;50.058;8.306;2022-09-09T15:56:43;19.50;99.90
15156;DHT22;7678;50.058;8.306;2022-09-09T15:59:12;19.50;99.90
15156;DHT22;7678;50.058;8.306;2022-09-09T16:01:41;19.40;99.90
15156;DHT22;7678;50.058;8.306;2022-09-09T16:04:10;19.40;99.90
15156;DHT22;7678;50.058;8.306;2022-09-09T16:06:38;19.40;99.90
15156;DHT22;7678;50.058;8.306;2022-09-09T16:09:07;19.40;99.90
15156;DHT22;7678;50.058;8.306;2022-09-09T16:11:38;19.30;99.90
15156;DHT22;7678;50.058;8.306;2022-09-09T16:14:07;19.30;99.90
15156;DHT22;7678;50.058;8.306;2022-09-09T16:16:35;19.30;99.90
15156;DHT22;7678;50.058;8.306;2022-09-09T16:19:05;19.40;99.90
15156;DHT22;7678;50.058;8.306;2022-09-09T16:21:35;19.40;99.90